createdAt,value
2018-02-23T00:02:26.612Z,0.70
2018-02-23T00:04:55.193Z,0.59
2018-02-23T00:07:23.723Z,0.62
2018-02-23T00:09:52.027Z,0.57
2018-02-23T00:12:21.146Z,0.64
2018-02-23T00:14:49.505Z,0.70
2018-02-23T00:17:17.822Z,0.58
2018-02-23T00:19:47.004Z,0.45
2018-02-23T00:22:15.348Z,0.50
2018-02-23T00:24:44.501Z,0.46
2018-02-23T00:27:12.967Z,0.53
2018-02-23T00:29:41.396Z,0.55
2018-02-23T00:32:10.467Z,0.52
2018-02-23T00:34:38.999Z,0.43
2018-02-23T00:37:07.306Z,0.39
2018-02-23T00:39:35.657Z,0.34
2018-02-23T00:42:03.964Z,0.41
2018-02-23T00:44:32.261Z,0.45
2018-02-23T00:47:00.589Z,0.35
2018-02-23T00:49:28.915Z,0.35
2018-02-23T00:51:57.241Z,0.29
2018-02-23T00:54:25.557Z,0.36
2018-02-23T00:56:54.003Z,0.46
2018-02-23T00:59:22.313Z,0.38
2018-02-23T01:01:50.812Z,0.30
2018-02-23T01:04:19.887Z,0.40
2018-02-23T01:06:48.295Z,0.32
2018-02-23T01:09:16.645Z,0.39
2018-02-23T01:11:45.013Z,0.32
2018-02-23T01:14:14.140Z,0.25
2018-02-23T01:16:43.241Z,0.19
2018-02-23T01:19:12.427Z,0.20
2018-02-23T01:21:40.813Z,0.36
2018-02-23T01:24:10.048Z,0.41
2018-02-23T01:26:38.330Z,0.27
2018-02-23T01:29:06.668Z,0.34
2018-02-23T01:31:35.003Z,0.29
2018-02-23T01:34:03.557Z,0.26
2018-02-23T01:36:32.979Z,0.07
2018-02-23T01:39:01.375Z,0.22
2018-02-23T01:41:29.692Z,0.19
2018-02-23T01:43:58.083Z,0.15
2018-02-23T01:46:26.570Z,0.05
2018-02-23T01:48:54.962Z,0.13
2018-02-23T01:51:23.568Z,0.13
2018-02-23T01:53:53.766Z,0.07
2018-02-23T01:56:22.141Z,0.15
2018-02-23T01:58:50.564Z,-0.01
2018-02-23T02:01:19.663Z,0.04
2018-02-23T02:03:48.768Z,0.02
2018-02-23T02:06:17.933Z,0.04
2018-02-23T02:08:47.043Z,-0.03
2018-02-23T02:11:15.385Z,-0.02
2018-02-23T02:13:43.738Z,-0.02
2018-02-23T02:16:13.004Z,0.02
2018-02-23T02:18:42.121Z,-0.12
2018-02-23T02:21:10.425Z,-0.09
2018-02-23T02:23:38.752Z,-0.13
2018-02-23T02:26:07.079Z,-0.09
2018-02-23T02:28:35.403Z,-0.11
2018-02-23T02:31:03.747Z,-0.15
2018-02-23T02:33:33.552Z,-0.09
2018-02-23T02:36:02.001Z,-0.12
2018-02-23T02:38:30.380Z,-0.22
2018-02-23T02:40:58.756Z,-0.17
2018-02-23T02:43:27.085Z,-0.04
2018-02-23T02:45:56.187Z,-0.19
2018-02-23T02:48:25.289Z,-0.11
2018-02-23T02:50:53.624Z,-0.23
2018-02-23T02:53:21.949Z,-0.23
2018-02-23T02:55:50.419Z,-0.26
2018-02-23T02:58:18.865Z,-0.39
2018-02-23T03:00:47.207Z,-0.37
2018-02-23T03:03:15.531Z,-0.31
2018-02-23T03:05:43.853Z,-0.33
2018-02-23T03:08:12.183Z,-0.28
2018-02-23T03:10:41.323Z,-0.21
2018-02-23T03:13:09.659Z,-0.35
2018-02-23T03:15:39.112Z,-0.36
2018-02-23T03:18:07.568Z,-0.39
2018-02-23T03:20:35.902Z,-0.44
2018-02-23T03:23:04.219Z,-0.32
2018-02-23T03:25:32.770Z,-0.33
2018-02-23T03:28:01.219Z,-0.34
2018-02-23T03:30:29.522Z,-0.27
2018-02-23T03:32:57.848Z,-0.44
2018-02-23T03:35:26.940Z,-0.45
2018-02-23T03:37:55.277Z,-0.31
2018-02-23T03:40:24.441Z,-0.36
2018-02-23T03:42:52.747Z,-0.34
2018-02-23T03:45:21.963Z,-0.25
2018-02-23T03:47:50.307Z,-0.29
2018-02-23T03:50:18.654Z,-0.45
2018-02-23T03:52:47.015Z,-0.51
2018-02-23T03:55:15.619Z,-0.37
2018-02-23T03:57:44.391Z,-0.45
2018-02-23T04:00:12.700Z,-0.48
2018-02-23T04:02:41.043Z,-0.49
2018-02-23T04:05:09.401Z,-0.48
2018-02-23T04:07:38.514Z,-0.67
2018-02-23T04:10:06.931Z,-0.54
2018-02-23T04:12:35.274Z,-0.41
2018-02-23T04:15:03.607Z,-0.50
2018-02-23T04:17:32.698Z,-0.56
2018-02-23T04:20:01.883Z,-0.52
2018-02-23T04:22:30.967Z,-0.56
2018-02-23T04:25:00.986Z,-0.48
2018-02-23T04:27:30.140Z,-0.54
2018-02-23T04:29:58.487Z,-0.39
2018-02-23T04:32:27.622Z,-0.60
2018-02-23T04:34:55.965Z,-0.53
2018-02-23T04:37:24.318Z,-0.61
2018-02-23T04:39:53.405Z,-0.66
2018-02-23T04:42:21.715Z,-0.54
2018-02-23T04:44:50.129Z,-0.55
2018-02-23T04:47:18.463Z,-0.68
2018-02-23T04:49:46.887Z,-0.77
2018-02-23T04:52:15.203Z,-0.73
2018-02-23T04:54:44.407Z,-0.73
2018-02-23T04:57:12.726Z,-0.70
2018-02-23T04:59:41.231Z,-0.49
2018-02-23T05:02:09.539Z,-0.64
2018-02-23T05:04:38.846Z,-0.77
2018-02-23T05:07:07.195Z,-0.78
2018-02-23T05:09:36.315Z,-0.84
2018-02-23T05:12:05.577Z,-0.78
2018-02-23T05:14:33.914Z,-0.82
2018-02-23T05:17:02.260Z,-0.94
2018-02-23T05:19:31.347Z,-0.87
2018-02-23T05:22:00.586Z,-0.91
2018-02-23T05:24:28.918Z,-0.84
2018-02-23T05:26:58.078Z,-0.89
2018-02-23T05:29:26.410Z,-0.94
2018-02-23T05:31:54.734Z,-0.94
2018-02-23T05:34:23.062Z,-0.96
2018-02-23T05:36:51.406Z,-0.82
2018-02-23T05:39:19.849Z,-0.84
2018-02-23T05:41:48.171Z,-0.77
2018-02-23T05:44:17.571Z,-0.82
2018-02-23T05:46:46.003Z,-0.94
2018-02-23T05:49:14.360Z,-0.94
2018-02-23T05:51:43.444Z,-1.04
2018-02-23T05:54:11.808Z,-1.02
2018-02-23T05:56:40.252Z,-0.97
2018-02-23T05:59:08.566Z,-1.04
2018-02-23T06:01:37.686Z,-1.05
2018-02-23T06:04:06.002Z,-1.00
2018-02-23T06:06:34.326Z,-0.83
2018-02-23T06:09:02.831Z,-1.01
2018-02-23T06:11:31.290Z,-0.92
2018-02-23T06:13:59.650Z,-0.71
2018-02-23T06:16:28.119Z,-0.74
2018-02-23T06:19:03.458Z,-0.52
2018-02-23T06:21:32.116Z,-0.57
2018-02-23T06:24:00.497Z,-0.43
2018-02-23T06:26:30.096Z,-0.49
2018-02-23T06:28:58.481Z,-0.76
2018-02-23T06:31:26.834Z,-0.53
2018-02-23T06:33:55.173Z,-0.52
2018-02-23T06:36:23.493Z,-0.70
2018-02-23T06:38:51.957Z,-0.78
2018-02-23T06:41:20.413Z,-0.72
2018-02-23T06:43:48.818Z,-0.78
2018-02-23T06:46:17.967Z,-0.59
2018-02-23T06:48:47.756Z,-0.73
2018-02-23T06:51:16.092Z,-0.66
2018-02-23T06:53:44.425Z,-0.70
2018-02-23T06:56:12.882Z,-0.85
2018-02-23T06:58:41.949Z,-0.94
2018-02-23T07:01:10.324Z,-1.02
2018-02-23T07:03:38.837Z,-1.13
2018-02-23T07:06:07.218Z,-1.11
2018-02-23T07:08:35.546Z,-1.06
2018-02-23T07:11:03.915Z,-1.01
2018-02-23T07:13:32.429Z,-1.08
2018-02-23T07:16:00.835Z,-0.99
2018-02-23T07:18:30.051Z,-1.02
2018-02-23T07:20:59.409Z,-1.06
2018-02-23T07:23:27.911Z,-1.03
2018-02-23T07:25:56.707Z,-1.08
2018-02-23T07:28:25.269Z,-0.90
2018-02-23T07:30:53.744Z,-0.82
2018-02-23T07:33:22.603Z,-0.82
2018-02-23T07:35:52.022Z,-0.89
2018-02-23T07:38:21.194Z,-0.85
2018-02-23T07:40:49.504Z,-0.97
2018-02-23T07:43:17.837Z,-0.70
2018-02-23T07:45:46.172Z,-0.68
2018-02-23T07:48:15.347Z,-0.62
2018-02-23T07:50:43.757Z,-0.50
2018-02-23T07:53:12.837Z,-0.57
2018-02-23T07:55:41.183Z,-0.56
2018-02-23T07:58:09.561Z,-0.63
2018-02-23T08:00:43.372Z,-0.42
2018-02-23T08:03:11.835Z,-0.55
2018-02-23T08:05:40.166Z,-0.52
2018-02-23T08:08:09.301Z,-0.35
2018-02-23T08:10:37.819Z,-0.41
2018-02-23T08:13:06.179Z,-0.48
2018-02-23T08:15:34.526Z,-0.17
2018-02-23T08:18:02.853Z,-0.13
2018-02-23T08:20:32.194Z,-0.05
2018-02-23T08:23:00.971Z,-0.15
2018-02-23T08:25:30.409Z,-0.02
2018-02-23T08:27:59.607Z,-0.14
2018-02-23T08:30:28.101Z,-0.04
2018-02-23T08:32:56.406Z,0.01
2018-02-23T08:35:26.263Z,0.32
2018-02-23T08:37:54.677Z,0.24
2018-02-23T08:40:23.283Z,-0.05
2018-02-23T08:42:52.683Z,0.14
2018-02-23T08:45:21.171Z,0.24
2018-02-23T08:47:49.746Z,0.21
2018-02-23T08:50:19.423Z,0.33
2018-02-23T08:52:48.356Z,0.43
2018-02-23T08:55:17.699Z,0.43
2018-02-23T08:57:46.559Z,0.65
2018-02-23T09:00:21.005Z,0.63
2018-02-23T09:02:50.075Z,0.73
2018-02-23T09:05:19.058Z,0.90
2018-02-23T09:07:48.648Z,0.97
2018-02-23T09:10:18.075Z,1.46
2018-02-23T09:12:46.461Z,1.46
2018-02-23T09:15:15.167Z,1.67
2018-02-23T09:17:44.371Z,2.58
2018-02-23T09:20:12.940Z,2.91
2018-02-23T09:22:41.391Z,3.37
2018-02-23T09:25:10.423Z,3.86
2018-02-23T09:27:39.424Z,4.03
2018-02-23T09:30:07.802Z,4.70
2018-02-23T09:32:39.456Z,4.61
2018-02-23T09:35:07.940Z,5.13
2018-02-23T09:37:36.553Z,5.21
2018-02-23T09:40:05.382Z,5.72
2018-02-23T09:42:34.681Z,5.96
2018-02-23T09:45:03.490Z,5.08
2018-02-23T09:47:31.997Z,5.28
2018-02-23T09:50:01.499Z,4.71
2018-02-23T09:52:30.151Z,4.46
2018-02-23T09:54:58.795Z,3.93
2018-02-23T09:57:27.315Z,4.87
2018-02-23T09:59:56.884Z,5.09
2018-02-23T10:02:26.086Z,6.15
2018-02-23T10:04:54.490Z,5.98
2018-02-23T10:07:23.722Z,5.96
2018-02-23T10:09:52.277Z,4.83
2018-02-23T10:12:20.740Z,4.43
2018-02-23T10:14:49.114Z,3.90
2018-02-23T10:17:17.699Z,3.40
2018-02-23T10:19:47.177Z,2.82
2018-02-23T10:22:16.402Z,2.80
2018-02-23T10:24:44.991Z,3.05
2018-02-23T10:27:14.071Z,2.95
2018-02-23T10:29:42.518Z,3.19
2018-02-23T10:32:11.838Z,3.93
2018-02-23T10:34:40.433Z,4.20
2018-02-23T10:37:08.756Z,3.67
2018-02-23T10:39:37.078Z,3.75
2018-02-23T10:42:05.569Z,4.09
2018-02-23T10:44:34.360Z,4.51
2018-02-23T10:47:02.697Z,4.08
2018-02-23T10:49:31.793Z,3.81
2018-02-23T10:52:00.892Z,3.47
2018-02-23T10:54:29.481Z,3.36
2018-02-23T10:56:58.251Z,2.86
2018-02-23T10:59:27.878Z,2.93
2018-02-23T11:01:56.382Z,3.20
2018-02-23T11:04:25.163Z,3.00
2018-02-23T11:06:55.256Z,2.99
2018-02-23T11:09:23.633Z,3.19
2018-02-23T11:11:53.096Z,3.40
2018-02-23T11:14:21.437Z,3.65
2018-02-23T11:16:50.016Z,3.63
2018-02-23T11:19:18.573Z,3.37
2018-02-23T11:21:46.920Z,3.13
2018-02-23T11:24:15.758Z,3.48
2018-02-23T11:26:44.162Z,3.68
2018-02-23T11:29:12.734Z,3.53
2018-02-23T11:31:42.331Z,3.78
2018-02-23T11:34:11.834Z,3.96
2018-02-23T11:36:40.648Z,3.88
2018-02-23T11:39:09.106Z,4.01
2018-02-23T11:41:37.654Z,4.68
2018-02-23T11:44:06.230Z,4.39
2018-02-23T11:46:35.564Z,4.04
2018-02-23T11:49:04.035Z,4.18
2018-02-23T11:51:32.628Z,3.95
2018-02-23T11:54:01.330Z,3.92
2018-02-23T11:56:30.125Z,3.86
2018-02-23T11:58:58.570Z,3.77
2018-02-23T12:01:27.219Z,3.79
2018-02-23T12:03:55.692Z,3.90
2018-02-23T12:06:25.013Z,4.07
2018-02-23T12:08:53.429Z,4.19
2018-02-23T12:11:22.067Z,4.60
2018-02-23T12:13:50.661Z,4.68
2018-02-23T12:16:19.403Z,5.74
2018-02-23T12:18:48.534Z,6.38
2018-02-23T12:21:17.968Z,6.20
2018-02-23T12:23:46.597Z,6.78
2018-02-23T12:26:15.078Z,6.78
2018-02-23T12:28:44.269Z,7.48
2018-02-23T12:31:12.703Z,6.37
2018-02-23T12:33:42.043Z,6.35
2018-02-23T12:36:10.804Z,5.99
2018-02-23T12:38:40.534Z,5.61
2018-02-23T12:41:09.409Z,5.45
2018-02-23T12:43:38.562Z,5.93
2018-02-23T12:46:07.241Z,5.77
2018-02-23T12:48:35.946Z,5.67
2018-02-23T12:51:04.799Z,5.72
2018-02-23T12:53:33.246Z,6.00
2018-02-23T12:56:02.228Z,5.88
2018-02-23T12:58:31.473Z,5.78
2018-02-23T13:01:00.042Z,5.72
2018-02-23T13:03:32.570Z,5.48
2018-02-23T13:06:01.226Z,5.71
2018-02-23T13:08:29.729Z,5.92
2018-02-23T13:10:58.240Z,5.87
2018-02-23T13:13:26.649Z,5.84
2018-02-23T13:15:55.901Z,5.95
2018-02-23T13:18:24.618Z,6.38
2018-02-23T13:20:52.982Z,6.49
2018-02-23T13:23:22.213Z,6.49
2018-02-23T13:25:51.082Z,7.09
2018-02-23T13:28:25.199Z,7.28
2018-02-23T13:30:55.397Z,7.73
2018-02-23T13:33:23.923Z,7.08
2018-02-23T13:35:52.379Z,6.77
2018-02-23T13:38:20.988Z,6.57
2018-02-23T13:40:55.234Z,6.66
2018-02-23T13:43:23.869Z,7.25
2018-02-23T13:45:52.432Z,6.94
2018-02-23T13:48:20.954Z,7.35
2018-02-23T13:50:50.019Z,6.68
2018-02-23T13:53:21.175Z,7.11
2018-02-23T13:55:49.933Z,6.98
2018-02-23T13:58:18.351Z,6.34
2018-02-23T14:00:47.099Z,6.58
2018-02-23T14:03:15.877Z,6.64
2018-02-23T14:05:47.538Z,6.57
2018-02-23T14:08:16.943Z,6.67
2018-02-23T14:13:27.063Z,5.83
2018-02-23T14:15:57.146Z,6.08
2018-02-23T14:18:26.618Z,6.03
2018-02-23T14:20:55.924Z,5.98
2018-02-23T14:23:26.377Z,6.42
2018-02-23T14:25:55.122Z,6.32
2018-02-23T14:28:23.966Z,6.33
2018-02-23T14:30:52.956Z,6.18
2018-02-23T14:33:22.417Z,6.11
2018-02-23T14:35:51.213Z,5.72
2018-02-23T14:38:20.445Z,5.86
2018-02-23T14:40:50.739Z,5.65
2018-02-23T14:43:25.029Z,5.69
2018-02-23T14:45:54.387Z,5.42
2018-02-23T14:48:42.213Z,5.83
2018-02-23T14:51:12.958Z,6.40
2018-02-23T14:53:43.415Z,6.69
2018-02-23T14:56:12.980Z,6.21
2018-02-23T14:58:42.598Z,6.99
2018-02-23T15:01:12.580Z,6.80
2018-02-23T15:03:41.837Z,6.60
2018-02-23T15:06:10.221Z,6.17
2018-02-23T15:08:38.783Z,5.84
2018-02-23T15:11:08.345Z,5.39
2018-02-23T15:13:38.225Z,5.12
2018-02-23T15:16:06.727Z,5.32
2018-02-23T15:18:35.880Z,5.54
2018-02-23T15:21:04.627Z,5.92
2018-02-23T15:23:34.474Z,6.35
2018-02-23T15:26:03.142Z,6.16
2018-02-23T15:28:31.818Z,5.95
2018-02-23T15:31:17.739Z,5.86
2018-02-23T15:33:46.624Z,5.14
2018-02-23T15:36:14.995Z,5.04
2018-02-23T15:38:43.582Z,4.97
2018-02-23T15:41:12.279Z,5.21
2018-02-23T15:43:40.895Z,5.34
2018-02-23T15:46:10.240Z,5.36
2018-02-23T15:48:40.144Z,5.42
2018-02-23T15:51:14.365Z,5.65
2018-02-23T15:53:44.514Z,5.80
2018-02-23T15:56:13.239Z,5.19
2018-02-23T15:58:44.920Z,5.53
2018-02-23T16:01:13.246Z,5.12
2018-02-23T16:03:41.745Z,4.87
2018-02-23T16:06:10.860Z,4.50
2018-02-23T16:08:40.190Z,4.26
2018-02-23T16:11:08.779Z,4.02
2018-02-23T16:13:37.733Z,3.97
2018-02-23T16:16:07.795Z,3.82
2018-02-23T16:18:37.480Z,3.62
2018-02-23T16:21:06.385Z,3.62
2018-02-23T16:23:35.136Z,3.60
2018-02-23T16:26:03.670Z,3.49
2018-02-23T16:28:35.161Z,3.41
2018-02-23T16:31:03.794Z,3.34
2018-02-23T16:33:33.308Z,3.30
2018-02-23T16:36:03.340Z,3.26
2018-02-23T16:38:32.018Z,3.34
2018-02-23T16:41:00.600Z,3.14
2018-02-23T16:43:29.940Z,3.16
2018-02-23T16:45:58.876Z,3.07
2018-02-23T16:48:28.668Z,3.06
2018-02-23T16:50:57.455Z,3.13
2018-02-23T16:53:27.404Z,3.08
2018-02-23T16:55:57.809Z,2.96
2018-02-23T16:58:26.342Z,3.49
2018-02-23T17:00:54.884Z,3.34
2018-02-23T17:03:23.820Z,3.62
2018-02-23T17:05:52.227Z,3.39
2018-02-23T17:08:20.688Z,3.28
2018-02-23T17:10:49.403Z,3.10
2018-02-23T17:13:18.218Z,3.10
2018-02-23T17:15:46.820Z,2.95
2018-02-23T17:18:15.229Z,2.83
2018-02-23T17:20:43.550Z,2.66
2018-02-23T17:23:11.921Z,2.67
2018-02-23T17:25:40.599Z,2.56
2018-02-23T17:28:09.155Z,2.47
2018-02-23T17:30:37.616Z,2.40
2018-02-23T17:33:06.457Z,2.37
2018-02-23T17:35:34.995Z,2.44
2018-02-23T17:38:05.028Z,2.44
2018-02-23T17:40:33.611Z,2.43
2018-02-23T17:43:02.860Z,2.45
2018-02-23T17:45:32.061Z,2.35
2018-02-23T17:48:01.386Z,2.38
2018-02-23T17:50:30.029Z,2.37
2018-02-23T17:52:59.394Z,2.38
2018-02-23T17:55:27.749Z,2.38
2018-02-23T17:57:56.112Z,2.31
2018-02-23T18:00:24.822Z,2.38
2018-02-23T18:02:53.753Z,2.26
2018-02-23T18:05:23.111Z,2.20
2018-02-23T18:07:51.739Z,2.22
2018-02-23T18:10:20.454Z,2.24
2018-02-23T18:12:49.060Z,2.23
2018-02-23T18:15:17.598Z,2.18
2018-02-23T18:17:46.892Z,2.14
2018-02-23T18:20:16.448Z,2.12
2018-02-23T18:22:45.129Z,2.13
2018-02-23T18:25:13.904Z,2.11
2018-02-23T18:27:42.429Z,2.13
2018-02-23T18:30:12.051Z,2.11
2018-02-23T18:32:40.714Z,2.09
2018-02-23T18:35:10.010Z,2.03
2018-02-23T18:37:38.702Z,2.03
2018-02-23T18:40:07.377Z,1.97
2018-02-23T18:42:38.561Z,1.91
2018-02-23T18:45:07.300Z,1.91
2018-02-23T18:47:36.630Z,1.86
2018-02-23T18:50:06.053Z,1.86
2018-02-23T18:52:35.486Z,1.91
2018-02-23T18:55:04.298Z,1.90
2018-02-23T18:57:32.809Z,2.01
2018-02-23T19:00:02.404Z,1.94
2018-02-23T19:02:31.098Z,1.96
2018-02-23T19:04:59.582Z,1.97
2018-02-23T19:07:29.052Z,1.92
2018-02-23T19:09:57.841Z,1.94
2018-02-23T19:12:26.388Z,1.86
2018-02-23T19:14:55.413Z,1.86
2018-02-23T19:17:24.392Z,1.88
2018-02-23T19:19:53.799Z,1.88
2018-02-23T19:22:23.121Z,1.80
2018-02-23T19:24:52.690Z,1.92
2018-02-23T19:27:21.749Z,1.88
2018-02-23T19:29:50.610Z,1.84
2018-02-23T19:32:19.122Z,1.81
2018-02-23T19:34:48.465Z,1.78
2018-02-23T19:37:17.303Z,1.79
2018-02-23T19:39:47.297Z,1.80
2018-02-23T19:42:18.619Z,1.71
2018-02-23T19:44:51.703Z,1.77
2018-02-23T19:47:21.326Z,1.80
2018-02-23T19:49:50.956Z,1.77
2018-02-23T19:52:19.710Z,1.64
2018-02-23T19:54:48.347Z,1.66
2018-02-23T19:57:17.574Z,1.67
2018-02-23T19:59:46.372Z,1.59
2018-02-23T20:02:15.734Z,1.57
2018-02-23T20:04:44.094Z,1.62
2018-02-23T20:07:13.203Z,1.58
2018-02-23T20:09:41.586Z,1.66
2018-02-23T20:12:10.170Z,1.57
2018-02-23T20:14:39.124Z,1.61
2018-02-23T20:17:07.451Z,1.60
2018-02-23T20:19:36.153Z,1.53
2018-02-23T20:22:04.804Z,1.52
2018-02-23T20:24:33.572Z,1.54
2018-02-23T20:27:01.931Z,1.54
2018-02-23T20:29:30.563Z,1.54
2018-02-23T20:31:58.926Z,1.48
2018-02-23T20:34:28.251Z,1.43
2018-02-23T20:36:57.129Z,1.53
2018-02-23T20:39:25.696Z,1.43
2018-02-23T20:41:54.563Z,1.39
2018-02-23T20:44:23.729Z,1.48
2018-02-23T20:46:52.444Z,1.51
2018-02-23T20:49:21.788Z,1.48
2018-02-23T20:51:50.434Z,1.69
2018-02-23T20:54:18.932Z,1.64
2018-02-23T20:56:47.452Z,1.51
2018-02-23T20:59:15.896Z,1.47
2018-02-23T21:01:44.705Z,1.43
2018-02-23T21:04:13.121Z,1.29
2018-02-23T21:06:41.918Z,1.44
2018-02-23T21:09:11.668Z,1.44
2018-02-23T21:11:40.151Z,1.47
2018-02-23T21:14:08.793Z,1.40
2018-02-23T21:16:40.498Z,1.39
2018-02-23T21:19:09.056Z,1.34
2018-02-23T21:21:37.803Z,1.26
2018-02-23T21:24:07.547Z,1.20
2018-02-23T21:26:36.226Z,1.14
2018-02-23T21:29:04.801Z,1.27
2018-02-23T21:31:33.422Z,1.00
2018-02-23T21:34:01.957Z,1.02
2018-02-23T21:36:31.096Z,0.98
2018-02-23T21:38:59.475Z,0.99
2018-02-23T21:41:27.987Z,0.98
2018-02-23T21:43:57.479Z,1.06
2018-02-23T21:46:26.200Z,1.07
2018-02-23T21:48:56.263Z,0.92
2018-02-23T21:51:25.241Z,0.89
2018-02-23T21:53:54.074Z,1.02
2018-02-23T21:56:23.995Z,0.97
2018-02-23T21:58:52.531Z,0.86
2018-02-23T22:01:21.107Z,0.79
2018-02-23T22:03:49.705Z,0.76
2018-02-23T22:06:19.378Z,0.82
2018-02-23T22:08:49.230Z,0.81
2018-02-23T22:11:19.501Z,0.79
2018-02-23T22:13:48.236Z,0.81
2018-02-23T22:16:17.464Z,0.64
2018-02-23T22:18:45.813Z,0.73
2018-02-23T22:21:14.620Z,0.61
2018-02-23T22:23:42.964Z,0.75
2018-02-23T22:26:11.953Z,0.65
2018-02-23T22:28:40.326Z,0.66
2018-02-23T22:31:09.223Z,0.59
2018-02-23T22:33:37.599Z,0.64
2018-02-23T22:36:06.149Z,0.68
2018-02-23T22:38:35.292Z,0.53
2018-02-23T22:41:03.644Z,0.52
2018-02-23T22:43:31.957Z,0.56
2018-02-23T22:46:00.309Z,0.55
2018-02-23T22:48:28.791Z,0.54
2018-02-23T22:50:57.230Z,0.43
2018-02-23T22:53:26.309Z,0.48
2018-02-23T22:55:54.661Z,0.41
2018-02-23T22:58:23.124Z,0.50
2018-02-23T23:00:51.842Z,0.40
2018-02-23T23:03:20.286Z,0.45
2018-02-23T23:05:48.859Z,0.56
2018-02-23T23:10:51.981Z,0.45
2018-02-23T23:13:20.344Z,0.51
2018-02-23T23:15:50.127Z,0.51
2018-02-23T23:18:22.689Z,0.49
2018-02-23T23:20:51.183Z,0.29
2018-02-23T23:23:19.545Z,0.44
2018-02-23T23:25:47.906Z,0.42
2018-02-23T23:28:17.946Z,0.29
2018-02-23T23:30:46.345Z,0.27
2018-02-23T23:33:15.340Z,0.35
2018-02-23T23:35:43.692Z,0.34
2018-02-23T23:38:12.762Z,0.32
2018-02-23T23:40:41.082Z,0.23
2018-02-23T23:43:09.423Z,0.22
2018-02-23T23:45:37.882Z,0.27
2018-02-23T23:48:06.289Z,0.24
2018-02-23T23:50:35.062Z,0.15
2018-02-23T23:53:03.429Z,0.31
2018-02-23T23:55:32.642Z,0.21
2018-02-23T23:58:00.953Z,0.28
